createdAt,value
2022-10-20T00:01:24.907Z,98190.44
2022-10-20T00:03:54.059Z,98191.75
2022-10-20T00:06:24.688Z,98196.06
2022-10-20T00:08:54.727Z,98190.75
2022-10-20T00:11:24.941Z,98188.09
2022-10-20T00:13:56.887Z,98182.91
2022-10-20T00:16:27.063Z,98174.94
2022-10-20T00:18:56.724Z,98176.06
2022-10-20T00:21:27.987Z,98178.03
2022-10-20T00:23:56.621Z,98172.00
2022-10-20T00:26:26.510Z,98179.03
2022-10-20T00:28:56.819Z,98174.81
2022-10-20T00:31:26.271Z,98196.38
2022-10-20T00:33:55.241Z,98192.91
2022-10-20T00:36:24.912Z,98193.88
2022-10-20T00:38:58.258Z,98189.03
2022-10-20T00:41:26.814Z,98185.53
2022-10-20T00:43:58.986Z,98180.47
2022-10-20T00:46:32.897Z,98188.31
2022-10-20T00:49:08.365Z,98184.13
2022-10-20T00:51:36.773Z,98188.44
2022-10-20T00:54:10.450Z,98182.41
2022-10-20T00:56:43.685Z,98180.91
2022-10-20T00:59:16.300Z,98175.88
2022-10-20T01:01:45.682Z,98171.56
2022-10-20T01:04:14.145Z,98176.88
2022-10-20T01:06:42.409Z,98174.34
2022-10-20T01:09:10.831Z,98163.31
2022-10-20T01:11:47.825Z,98167.78
2022-10-20T01:14:36.367Z,98167.09
2022-10-20T01:17:13.992Z,98162.06
2022-10-20T01:20:37.825Z,98148.22
2022-10-20T01:23:55.955Z,98148.81
2022-10-20T01:27:13.922Z,98152.75
2022-10-20T01:29:46.916Z,98143.22
2022-10-20T01:32:23.657Z,98145.06
2022-10-20T01:35:00.889Z,98139.03
2022-10-20T01:37:48.745Z,98133.88
2022-10-20T01:40:28.621Z,98131.13
2022-10-20T01:43:01.948Z,98128.75
2022-10-20T01:45:35.211Z,98137.31
2022-10-20T01:48:07.278Z,98133.25
2022-10-20T01:50:37.458Z,98135.22
2022-10-20T01:53:06.164Z,98130.19
2022-10-20T01:55:35.914Z,98131.00
2022-10-20T01:58:29.260Z,98132.16
2022-10-20T02:01:05.259Z,98126.41
2022-10-20T02:03:46.648Z,98130.06
2022-10-20T02:06:28.554Z,98122.22
2022-10-20T02:09:00.379Z,98114.41
2022-10-20T02:11:38.563Z,98118.88
2022-10-20T02:14:08.990Z,98124.31
2022-10-20T02:16:44.296Z,98121.97
2022-10-20T02:19:14.841Z,98110.66
2022-10-20T02:21:43.117Z,98114.97
2022-10-20T02:24:11.867Z,98108.81
2022-10-20T02:26:41.348Z,98114.13
2022-10-20T02:29:17.280Z,98117.91
2022-10-20T02:31:47.642Z,98116.94
2022-10-20T02:34:16.685Z,98118.63
2022-10-20T02:36:45.419Z,98115.97
2022-10-20T02:39:13.886Z,98111.63
2022-10-20T02:41:42.114Z,98094.31
2022-10-20T02:44:10.352Z,98090.97
2022-10-20T02:46:38.559Z,98090.97
2022-10-20T02:49:08.188Z,98087.75
2022-10-20T02:51:36.584Z,98091.53
2022-10-20T02:54:04.969Z,98107.06
2022-10-20T02:56:33.162Z,98104.41
2022-10-20T02:59:01.369Z,98100.22
2022-10-20T03:01:29.696Z,98099.09
2022-10-20T03:03:59.901Z,98097.41
2022-10-20T03:06:29.624Z,98099.09
2022-10-20T03:08:57.866Z,98099.09
2022-10-20T03:11:27.125Z,98094.88
2022-10-20T03:13:55.392Z,98092.50
2022-10-20T03:16:26.990Z,98091.78
2022-10-20T03:18:58.739Z,98082.88
2022-10-20T03:21:31.209Z,98088.31
2022-10-20T03:23:59.383Z,98089.28
2022-10-20T03:26:27.728Z,98084.97
2022-10-20T03:28:55.969Z,98078.94
2022-10-20T03:31:24.252Z,98077.16
2022-10-20T03:33:52.570Z,98077.28
2022-10-20T03:36:20.795Z,98074.63
2022-10-20T03:38:50.422Z,98063.44
2022-10-20T03:41:18.700Z,98062.22
2022-10-20T03:43:46.942Z,98063.72
2022-10-20T03:46:15.169Z,98062.06
2022-10-20T03:48:43.470Z,98058.41
2022-10-20T03:51:14.657Z,98057.59
2022-10-20T03:53:43.371Z,98062.06
2022-10-20T03:56:19.347Z,98062.91
2022-10-20T03:58:48.494Z,98061.22
2022-10-20T04:01:19.444Z,98060.41
2022-10-20T04:03:47.802Z,98064.00
2022-10-20T04:06:16.918Z,98072.81
2022-10-20T04:08:45.245Z,98059.56
2022-10-20T04:11:15.099Z,98058.56
2022-10-20T04:13:43.357Z,98046.28
2022-10-20T04:16:11.596Z,98044.63
2022-10-20T04:18:39.836Z,98049.94
2022-10-20T04:21:08.400Z,98054.38
2022-10-20T04:23:36.655Z,98053.72
2022-10-20T04:26:10.919Z,98061.66
2022-10-20T04:28:40.681Z,98053.84
2022-10-20T04:31:09.745Z,98046.84
2022-10-20T04:33:38.076Z,98052.28
2022-10-20T04:36:09.287Z,98047.97
2022-10-20T04:38:37.787Z,98053.41
2022-10-20T04:41:06.849Z,98047.53
2022-10-20T04:43:35.799Z,98037.06
2022-10-20T04:46:08.806Z,98031.09
2022-10-20T04:48:37.747Z,98037.34
2022-10-20T04:51:09.331Z,98036.69
2022-10-20T04:53:37.835Z,98034.16
2022-10-20T04:56:07.661Z,98025.50
2022-10-20T04:58:36.705Z,98014.31
2022-10-20T05:01:09.084Z,98024.25
2022-10-20T05:03:38.149Z,98015.59
2022-10-20T05:06:12.311Z,98019.38
2022-10-20T05:08:41.777Z,98020.47
2022-10-20T05:11:10.832Z,98019.78
2022-10-20T05:13:39.389Z,98026.19
2022-10-20T05:16:10.383Z,98031.63
2022-10-20T05:18:39.178Z,98031.91
2022-10-20T05:21:09.959Z,98026.88
2022-10-20T05:23:39.734Z,98017.25
2022-10-20T05:26:11.575Z,98012.09
2022-10-20T05:28:40.115Z,98022.03
2022-10-20T05:31:10.267Z,98013.34
2022-10-20T05:33:39.574Z,98014.47
2022-10-20T05:36:12.397Z,98013.06
2022-10-20T05:38:40.919Z,98017.41
2022-10-20T05:41:10.852Z,98012.38
2022-10-20T05:43:39.232Z,98025.66
2022-10-20T05:46:10.153Z,98028.56
2022-10-20T05:48:42.952Z,98010.97
2022-10-20T05:51:15.215Z,98009.56
2022-10-20T05:53:44.234Z,98008.88
2022-10-20T05:56:14.806Z,98003.97
2022-10-20T05:58:43.921Z,98003.16
2022-10-20T06:01:18.042Z,98001.47
2022-10-20T06:03:49.910Z,98006.09
2022-10-20T06:06:19.868Z,98015.00
2022-10-20T06:08:48.620Z,98025.59
2022-10-20T06:11:17.252Z,98023.91
2022-10-20T06:13:48.472Z,98026.72
2022-10-20T06:16:23.855Z,98017.91
2022-10-20T06:18:52.506Z,98018.91
2022-10-20T06:21:23.273Z,98016.09
2022-10-20T06:23:51.857Z,98021.28
2022-10-20T06:26:23.291Z,98028.25
2022-10-20T06:28:58.590Z,98023.06
2022-10-20T06:31:33.202Z,98027.28
2022-10-20T06:34:01.812Z,98023.66
2022-10-20T06:36:30.123Z,98035.09
2022-10-20T06:39:00.617Z,98032.19
2022-10-20T06:41:29.225Z,98034.56
2022-10-20T06:43:59.673Z,98041.25
2022-10-20T06:46:31.864Z,98033.88
2022-10-20T06:49:03.585Z,98027.31
2022-10-20T06:51:32.187Z,98021.72
2022-10-20T06:54:01.544Z,98030.13
2022-10-20T06:56:32.280Z,98029.53
2022-10-20T06:59:01.964Z,98030.69
2022-10-20T07:01:33.801Z,98023.97
2022-10-20T07:04:04.362Z,98024.25
2022-10-20T07:06:35.283Z,98017.13
2022-10-20T07:09:06.144Z,98016.00
2022-10-20T07:11:34.892Z,98008.56
2022-10-20T07:14:04.234Z,98001.56
2022-10-20T07:16:36.081Z,98000.88
2022-10-20T07:19:06.044Z,98006.16
2022-10-20T07:21:39.180Z,97997.19
2022-10-20T07:24:10.735Z,97999.78
2022-10-20T07:26:41.740Z,97994.44
2022-10-20T07:29:11.078Z,97993.44
2022-10-20T07:31:43.539Z,97994.06
2022-10-20T07:34:25.212Z,98000.84
2022-10-20T07:36:54.449Z,98002.03
2022-10-20T07:39:22.986Z,97998.88
2022-10-20T07:41:51.290Z,97994.41
2022-10-20T07:44:20.055Z,97996.25
2022-10-20T07:46:49.684Z,97993.56
2022-10-20T07:52:06.720Z,97997.84
2022-10-20T07:54:35.067Z,97995.28
2022-10-20T07:57:03.274Z,97975.94
2022-10-20T07:59:31.483Z,97988.81
2022-10-20T08:02:01.215Z,97986.09
2022-10-20T08:04:31.661Z,97985.47
2022-10-20T08:07:00.739Z,97970.84
2022-10-20T08:09:29.176Z,97970.88
2022-10-20T08:11:57.459Z,97968.41
2022-10-20T08:14:27.887Z,97968.44
2022-10-20T08:16:59.360Z,97963.81
2022-10-20T08:19:32.340Z,97963.66
2022-10-20T08:22:00.629Z,97963.84
2022-10-20T08:24:28.955Z,97964.16
2022-10-20T08:26:57.354Z,97962.31
2022-10-20T08:29:25.610Z,97967.50
2022-10-20T08:31:53.885Z,97969.31
2022-10-20T08:34:22.172Z,97953.28
2022-10-20T08:36:51.844Z,97942.56
2022-10-20T08:39:20.614Z,97940.38
2022-10-20T08:42:08.935Z,97929.47
2022-10-20T08:44:39.650Z,97938.13
2022-10-20T08:47:25.755Z,97929.56
2022-10-20T08:49:56.346Z,97931.97
2022-10-20T08:52:27.581Z,97933.88
2022-10-20T08:54:58.315Z,97930.50
2022-10-20T08:57:29.483Z,97933.06
2022-10-20T09:00:09.471Z,97931.19
2022-10-20T09:02:38.438Z,97935.91
2022-10-20T09:05:10.626Z,97934.84
2022-10-20T09:07:41.714Z,97920.84
2022-10-20T09:10:26.887Z,97915.69
2022-10-20T09:12:55.331Z,97898.66
2022-10-20T09:15:26.574Z,97899.69
2022-10-20T09:18:00.216Z,97904.97
2022-10-20T09:20:34.368Z,97903.78
2022-10-20T09:23:07.846Z,97896.16
2022-10-20T09:25:42.288Z,97900.47
2022-10-20T09:28:23.467Z,97898.53
2022-10-20T09:30:52.112Z,97899.06
2022-10-20T09:33:30.151Z,97892.75
2022-10-20T09:36:05.630Z,97900.81
2022-10-20T09:38:36.609Z,97900.22
2022-10-20T09:41:14.144Z,97899.63
2022-10-20T09:43:52.168Z,97897.75
2022-10-20T09:46:25.849Z,97901.34
2022-10-20T09:48:54.599Z,97901.97
2022-10-20T09:51:26.590Z,97898.09
2022-10-20T09:54:00.535Z,97887.78
2022-10-20T09:56:32.240Z,97883.53
2022-10-20T09:59:03.088Z,97878.47
2022-10-20T10:01:31.438Z,97877.31
2022-10-20T10:04:02.091Z,97879.91
2022-10-20T10:06:42.919Z,97878.16
2022-10-20T10:09:34.562Z,97874.75
2022-10-20T10:12:06.150Z,97872.34
2022-10-20T10:14:36.556Z,97861.25
2022-10-20T10:17:04.943Z,97861.47
2022-10-20T10:19:34.623Z,97860.50
2022-10-20T10:22:05.069Z,97860.97
2022-10-20T10:24:41.787Z,97856.28
2022-10-20T10:27:26.285Z,97862.34
2022-10-20T10:29:55.383Z,97856.59
2022-10-20T10:32:28.967Z,97862.84
2022-10-20T10:35:09.205Z,97870.09
2022-10-20T10:37:40.425Z,97875.72
2022-10-20T10:40:18.111Z,97864.97
2022-10-20T10:43:13.029Z,97860.63
2022-10-20T10:45:51.576Z,97854.63
2022-10-20T10:49:05.617Z,97858.56
2022-10-20T10:51:53.686Z,97852.16
2022-10-20T10:54:46.503Z,97846.78
2022-10-20T10:57:25.639Z,97840.78
2022-10-20T10:59:54.677Z,97843.47
2022-10-20T11:03:01.719Z,97838.50
2022-10-20T11:05:55.698Z,97843.19
2022-10-20T11:08:39.331Z,97834.06
2022-10-20T11:11:21.707Z,97838.19
2022-10-20T11:14:11.384Z,97839.19
2022-10-20T11:16:46.102Z,97836.47
2022-10-20T11:19:35.885Z,97830.81
2022-10-20T11:22:18.912Z,97822.34
2022-10-20T11:24:55.566Z,97814.97
2022-10-20T11:27:28.216Z,97811.47
2022-10-20T11:30:05.639Z,97810.88
2022-10-20T11:32:39.407Z,97808.19
2022-10-20T11:35:19.715Z,97798.50
2022-10-20T11:37:55.961Z,97791.91
2022-10-20T11:40:26.300Z,97787.13
2022-10-20T11:43:06.598Z,97780.50
2022-10-20T11:45:46.750Z,97775.97
2022-10-20T11:48:22.635Z,97780.09
2022-10-20T11:54:04.105Z,97763.75
2022-10-20T11:57:07.105Z,97762.50
2022-10-20T12:00:05.817Z,97755.66
2022-10-20T12:03:36.771Z,97762.72
2022-10-20T12:06:46.932Z,97754.00
2022-10-20T12:09:56.395Z,97752.78
2022-10-20T12:12:34.341Z,97753.59
2022-10-20T12:15:05.897Z,97754.84
2022-10-20T12:17:42.395Z,97747.41
2022-10-20T12:20:55.164Z,97744.72
2022-10-20T12:24:05.642Z,97740.78
2022-10-20T12:27:22.107Z,97736.44
2022-10-20T12:30:02.782Z,97721.72
2022-10-20T12:33:15.865Z,97720.09
2022-10-20T12:36:01.881Z,97712.63
2022-10-20T12:38:32.198Z,97704.75
2022-10-20T12:41:02.475Z,97695.44
2022-10-20T12:43:50.625Z,97688.63
2022-10-20T12:46:24.699Z,97682.44
2022-10-20T12:48:59.943Z,97692.59
2022-10-20T12:51:40.772Z,97698.78
2022-10-20T12:54:23.012Z,97698.16
2022-10-20T12:56:52.189Z,97702.72
2022-10-20T12:59:39.343Z,97700.84
2022-10-20T13:02:53.528Z,97707.28
2022-10-20T13:05:54.316Z,97702.50
2022-10-20T13:08:31.724Z,97705.22
2022-10-20T13:11:44.515Z,97715.75
2022-10-20T13:14:48.041Z,97708.50
2022-10-20T13:17:31.052Z,97708.06
2022-10-20T13:20:05.509Z,97711.16
2022-10-20T13:22:46.666Z,97703.91
2022-10-20T13:25:30.862Z,97711.78
2022-10-20T13:28:18.393Z,97712.19
2022-10-20T13:31:03.525Z,97703.25
2022-10-20T13:34:02.669Z,97705.28
2022-10-20T13:36:47.815Z,97700.69
2022-10-20T13:39:23.381Z,97695.28
2022-10-20T13:42:03.994Z,97703.75
2022-10-20T13:44:46.497Z,97713.25
2022-10-20T13:47:46.551Z,97714.69
2022-10-20T13:52:48.929Z,97713.88
2022-10-20T13:55:21.852Z,97712.22
2022-10-20T13:57:55.725Z,97699.19
2022-10-20T14:00:28.136Z,97699.97
2022-10-20T14:03:00.644Z,97702.06
2022-10-20T14:05:31.552Z,97701.03
2022-10-20T14:08:06.178Z,97704.94
2022-10-20T14:10:45.025Z,97697.69
2022-10-20T14:13:19.493Z,97703.28
2022-10-20T14:15:50.448Z,97695.22
2022-10-20T14:18:26.007Z,97692.91
2022-10-20T14:21:02.747Z,97698.69
2022-10-20T14:23:36.304Z,97690.84
2022-10-20T14:26:05.693Z,97686.28
2022-10-20T14:28:37.371Z,97686.69
2022-10-20T14:31:06.965Z,97686.91
2022-10-20T14:33:41.508Z,97697.22
2022-10-20T14:36:19.944Z,97688.09
2022-10-20T14:38:50.789Z,97706.91
2022-10-20T14:41:28.003Z,97702.13
2022-10-20T14:44:05.060Z,97704.22
2022-10-20T14:46:38.418Z,97706.06
2022-10-20T14:49:17.172Z,97711.19
2022-10-20T14:51:55.978Z,97716.34
2022-10-20T14:54:37.746Z,97710.25
2022-10-20T14:57:39.170Z,97709.19
2022-10-20T15:00:34.748Z,97705.44
2022-10-20T15:03:07.761Z,97711.81
2022-10-20T15:05:41.422Z,97715.34
2022-10-20T15:08:18.453Z,97703.94
2022-10-20T15:10:47.047Z,97708.31
2022-10-20T15:13:27.693Z,97714.28
2022-10-20T15:15:59.197Z,97716.50
2022-10-20T15:18:28.601Z,97711.34
2022-10-20T15:20:58.023Z,97715.25
2022-10-20T15:23:29.004Z,97712.97
2022-10-20T15:26:02.886Z,97723.91
2022-10-20T15:28:38.511Z,97719.75
2022-10-20T15:31:18.582Z,97724.69
2022-10-20T15:33:47.477Z,97724.88
2022-10-20T15:36:20.621Z,97714.72
2022-10-20T15:38:50.564Z,97697.97
2022-10-20T15:41:21.888Z,97683.47
2022-10-20T15:43:50.371Z,97689.44
2022-10-20T15:46:20.923Z,97701.59
2022-10-20T15:48:49.627Z,97697.81
2022-10-20T15:51:24.711Z,97686.19
2022-10-20T15:53:53.051Z,97688.63
2022-10-20T15:56:21.819Z,97680.50
2022-10-20T15:58:51.146Z,97681.28
2022-10-20T16:01:22.508Z,97677.53
2022-10-20T16:03:51.114Z,97688.16
2022-10-20T16:06:20.552Z,97688.94
2022-10-20T16:08:51.222Z,97683.50
2022-10-20T16:11:22.639Z,97683.44
2022-10-20T16:13:51.129Z,97685.06
2022-10-20T16:16:21.554Z,97678.56
2022-10-20T16:18:49.990Z,97678.34
2022-10-20T16:21:18.288Z,97675.56
2022-10-20T16:23:47.437Z,97669.94
2022-10-20T16:26:16.422Z,97661.19
2022-10-20T16:28:44.959Z,97657.59
2022-10-20T16:31:15.983Z,97659.00
2022-10-20T16:33:46.967Z,97660.75
2022-10-20T16:36:18.272Z,97667.69
2022-10-20T16:38:46.871Z,97675.25
2022-10-20T16:41:16.758Z,97668.63
2022-10-20T16:43:47.454Z,97658.47
2022-10-20T16:46:16.983Z,97653.69
2022-10-20T16:48:48.206Z,97637.31
2022-10-20T16:51:17.958Z,97628.84
2022-10-20T16:53:46.465Z,97629.22
2022-10-20T16:56:18.187Z,97632.91
2022-10-20T16:58:49.747Z,97642.34
2022-10-20T17:01:21.277Z,97643.53
2022-10-20T17:03:53.203Z,97643.72
2022-10-20T17:06:24.213Z,97639.59
2022-10-20T17:08:53.237Z,97633.75
2022-10-20T17:11:24.131Z,97624.28
2022-10-20T17:13:52.987Z,97615.75
2022-10-20T17:16:27.603Z,97614.31
2022-10-20T17:19:00.537Z,97613.66
2022-10-20T17:21:30.926Z,97617.53
2022-10-20T17:23:59.658Z,97613.34
2022-10-20T17:26:31.381Z,97616.41
2022-10-20T17:29:02.048Z,97613.25
2022-10-20T17:31:31.558Z,97613.81
2022-10-20T17:34:01.718Z,97614.34
2022-10-20T17:36:31.581Z,97605.84
2022-10-20T17:39:02.068Z,97596.91
2022-10-20T17:41:31.019Z,97605.31
2022-10-20T17:44:01.638Z,97601.91
2022-10-20T17:46:30.383Z,97604.09
2022-10-20T17:49:01.534Z,97593.09
2022-10-20T17:51:33.648Z,97601.50
2022-10-20T17:54:04.040Z,97599.19
2022-10-20T17:56:35.898Z,97582.50
2022-10-20T17:59:07.662Z,97581.84
2022-10-20T18:01:38.662Z,97592.53
2022-10-20T18:04:11.111Z,97589.22
2022-10-20T18:06:40.528Z,97583.59
2022-10-20T18:09:11.951Z,97576.56
2022-10-20T18:11:42.413Z,97572.25
2022-10-20T18:14:10.744Z,97579.81
2022-10-20T18:16:41.031Z,97573.81
2022-10-20T18:19:15.819Z,97573.69
2022-10-20T18:21:45.120Z,97564.69
2022-10-20T18:24:15.650Z,97567.72
2022-10-20T18:26:44.633Z,97564.56
2022-10-20T18:29:14.621Z,97562.91
2022-10-20T18:31:45.998Z,97562.44
2022-10-20T18:34:20.576Z,97566.50
2022-10-20T18:36:49.966Z,97568.81
2022-10-20T18:39:18.927Z,97564.88
2022-10-20T18:41:47.478Z,97564.19
2022-10-20T18:44:18.542Z,97577.91
2022-10-20T18:46:47.671Z,97591.09
2022-10-20T18:49:21.489Z,97589.25
2022-10-20T18:51:50.009Z,97595.41
2022-10-20T18:54:23.271Z,97592.94
2022-10-20T18:56:51.579Z,97583.09
2022-10-20T18:59:19.806Z,97590.06
2022-10-20T19:01:49.082Z,97599.09
2022-10-20T19:04:18.729Z,97595.41
2022-10-20T19:06:48.921Z,97591.09
2022-10-20T19:09:19.935Z,97593.94
2022-10-20T19:14:18.813Z,97591.28
2022-10-20T19:16:48.716Z,97583.44
2022-10-20T19:19:18.725Z,97586.09
2022-10-20T19:21:47.330Z,97580.94
2022-10-20T19:24:18.576Z,97576.63
2022-10-20T19:26:57.149Z,97557.63
2022-10-20T19:29:37.510Z,97560.28
2022-10-20T19:32:07.285Z,97555.31
2022-10-20T19:34:40.081Z,97558.34
2022-10-20T19:37:09.547Z,97561.19
2022-10-20T19:39:41.370Z,97572.03
2022-10-20T19:42:11.201Z,97573.25
2022-10-20T19:44:40.433Z,97573.41
2022-10-20T19:47:09.525Z,97580.59
2022-10-20T19:49:40.928Z,97589.78
2022-10-20T19:52:09.749Z,97587.13
2022-10-20T19:54:38.055Z,97583.78
2022-10-20T19:57:06.937Z,97584.97
2022-10-20T19:59:35.291Z,97587.84
2022-10-20T20:02:03.574Z,97593.16
2022-10-20T20:04:31.879Z,97598.50
2022-10-20T20:07:02.572Z,97587.16
2022-10-20T20:09:31.411Z,97584.03
2022-10-20T20:11:59.675Z,97574.34
2022-10-20T20:14:27.964Z,97582.53
2022-10-20T20:16:56.258Z,97585.56
2022-10-20T20:19:24.621Z,97580.38
2022-10-20T20:21:52.980Z,97583.06
2022-10-20T20:24:22.707Z,97573.56
2022-10-20T20:26:51.007Z,97573.75
2022-10-20T20:29:19.292Z,97576.59
2022-10-20T20:31:48.117Z,97573.09
2022-10-20T20:34:17.238Z,97578.59
2022-10-20T20:36:45.542Z,97577.13
2022-10-20T20:39:13.852Z,97570.31
2022-10-20T20:41:43.805Z,97564.97
2022-10-20T20:44:12.172Z,97555.31
2022-10-20T20:46:40.633Z,97554.47
2022-10-20T20:49:08.938Z,97544.81
2022-10-20T20:51:37.253Z,97552.81
2022-10-20T20:54:05.762Z,97546.81
2022-10-20T20:56:34.167Z,97552.16
2022-10-20T20:59:04.374Z,97547.00
2022-10-20T21:01:32.927Z,97540.00
2022-10-20T21:04:04.215Z,97548.19
2022-10-20T21:06:49.355Z,97555.34
2022-10-20T21:09:22.120Z,97550.19
2022-10-20T21:11:50.421Z,97550.38
2022-10-20T21:14:20.195Z,97549.34
2022-10-20T21:16:48.501Z,97544.19
2022-10-20T21:19:16.841Z,97558.38
2022-10-20T21:21:50.622Z,97555.88
2022-10-20T21:24:19.981Z,97559.56
2022-10-20T21:26:48.849Z,97561.22
2022-10-20T21:29:18.081Z,97570.22
2022-10-20T21:31:47.890Z,97569.38
2022-10-20T21:34:16.347Z,97580.06
2022-10-20T21:36:44.629Z,97581.88
2022-10-20T21:39:15.906Z,97586.41
2022-10-20T21:41:45.874Z,97599.59
2022-10-20T21:44:15.853Z,97599.75
2022-10-20T21:46:47.647Z,97601.59
2022-10-20T21:49:19.559Z,97602.59
2022-10-20T21:51:50.622Z,97617.75
2022-10-20T21:56:55.713Z,97632.75
2022-10-20T21:59:26.380Z,97634.63
2022-10-20T22:01:57.798Z,97648.94
2022-10-20T22:04:29.757Z,97665.78
2022-10-20T22:06:59.414Z,97669.66
2022-10-20T22:09:28.090Z,97668.13
2022-10-20T22:11:58.997Z,97669.16
2022-10-20T22:14:27.439Z,97676.78
2022-10-20T22:16:56.677Z,97680.81
2022-10-20T22:19:27.332Z,97681.31
2022-10-20T22:24:30.602Z,97682.00
2022-10-20T22:26:59.011Z,97682.19
2022-10-20T22:29:28.704Z,97682.50
2022-10-20T22:31:56.982Z,97691.69
2022-10-20T22:34:26.718Z,97690.22
2022-10-20T22:36:55.057Z,97701.84
2022-10-20T22:39:23.377Z,97704.88
2022-10-20T22:41:51.638Z,97705.88
2022-10-20T22:44:19.995Z,97703.56
2022-10-20T22:46:48.250Z,97702.69
2022-10-20T22:49:16.770Z,97697.53
2022-10-20T22:51:46.399Z,97703.03
2022-10-20T22:54:14.706Z,97707.72
2022-10-20T22:56:43.102Z,97700.88
2022-10-20T22:59:11.406Z,97707.22
2022-10-20T23:01:39.790Z,97699.56
2022-10-20T23:04:08.079Z,97702.38
2022-10-20T23:06:36.360Z,97687.75
2022-10-20T23:09:06.306Z,97684.91
2022-10-20T23:11:35.110Z,97676.91
2022-10-20T23:14:03.455Z,97669.91
2022-10-20T23:16:31.808Z,97675.22
2022-10-20T23:19:00.099Z,97668.25
2022-10-20T23:21:28.361Z,97659.56
2022-10-20T23:23:56.694Z,97656.91
2022-10-20T23:26:26.663Z,97656.91
2022-10-20T23:28:54.969Z,97660.41
2022-10-20T23:31:24.050Z,97658.59
2022-10-20T23:33:56.393Z,97650.75
2022-10-20T23:36:25.039Z,97650.75
2022-10-20T23:38:53.454Z,97649.91
2022-10-20T23:41:22.207Z,97654.25
2022-10-20T23:43:51.871Z,97640.09
2022-10-20T23:46:20.221Z,97644.25
2022-10-20T23:48:48.492Z,97640.91
2022-10-20T23:51:16.854Z,97631.25
2022-10-20T23:53:45.186Z,97617.09
2022-10-20T23:56:13.459Z,97626.94
2022-10-20T23:58:41.754Z,97624.44
